createdAt,value
2019-03-30T00:00:06.476Z,36.48
2019-03-30T00:02:35.872Z,36.48
2019-03-30T00:05:05.460Z,34.50
2019-03-30T00:07:34.788Z,35.60
2019-03-30T00:10:04.069Z,36.03
2019-03-30T00:12:34.136Z,33.40
2019-03-30T00:15:03.844Z,34.90
2019-03-30T00:17:33.022Z,35.75
2019-03-30T00:20:02.139Z,37.78
2019-03-30T00:22:31.375Z,34.85
2019-03-30T00:25:00.570Z,36.13
2019-03-30T00:27:29.939Z,34.98
2019-03-30T00:29:59.120Z,33.33
2019-03-30T00:32:28.314Z,30.55
2019-03-30T00:34:57.483Z,32.63
2019-03-30T00:37:26.620Z,33.60
2019-03-30T00:39:55.853Z,33.38
2019-03-30T00:42:25.128Z,32.53
2019-03-30T00:44:54.305Z,32.05
2019-03-30T00:47:23.585Z,37.55
2019-03-30T00:49:52.706Z,33.35
2019-03-30T00:52:22.025Z,37.98
2019-03-30T00:54:51.227Z,34.15
2019-03-30T00:57:20.479Z,31.50
2019-03-30T00:59:49.650Z,37.38
2019-03-30T01:02:18.827Z,36.00
2019-03-30T01:04:48.065Z,33.65
2019-03-30T01:07:17.313Z,35.03
2019-03-30T01:09:46.576Z,33.48
2019-03-30T01:12:15.762Z,34.98
2019-03-30T01:14:44.893Z,32.80
2019-03-30T01:17:14.819Z,34.23
2019-03-30T01:19:44.261Z,35.50
2019-03-30T01:22:14.345Z,32.30
2019-03-30T01:24:43.819Z,36.38
2019-03-30T01:27:12.995Z,35.05
2019-03-30T01:29:42.321Z,33.50
2019-03-30T01:32:11.555Z,33.85
2019-03-30T01:34:40.704Z,30.72
2019-03-30T01:37:09.931Z,32.25
2019-03-30T01:39:39.055Z,32.28
2019-03-30T01:42:08.474Z,33.48
2019-03-30T01:44:38.075Z,30.20
2019-03-30T01:47:08.399Z,32.85
2019-03-30T01:49:37.644Z,29.75
2019-03-30T01:52:06.925Z,30.97
2019-03-30T01:54:36.229Z,30.65
2019-03-30T01:57:05.637Z,32.65
2019-03-30T01:59:34.786Z,29.42
2019-03-30T02:02:04.133Z,31.10
2019-03-30T02:04:33.321Z,29.70
2019-03-30T02:07:02.461Z,31.17
2019-03-30T02:09:31.781Z,30.55
2019-03-30T02:12:00.935Z,29.30
2019-03-30T02:14:30.348Z,33.55
2019-03-30T02:16:59.486Z,32.03
2019-03-30T02:19:28.821Z,32.53
2019-03-30T02:21:57.978Z,32.10
2019-03-30T02:24:27.262Z,31.90
2019-03-30T02:26:56.416Z,28.38
2019-03-30T02:29:25.575Z,29.10
2019-03-30T02:31:54.748Z,31.40
2019-03-30T02:34:24.047Z,31.87
2019-03-30T02:36:53.289Z,29.92
2019-03-30T02:39:22.542Z,29.80
2019-03-30T02:41:51.715Z,31.37
2019-03-30T02:44:20.880Z,28.90
2019-03-30T02:46:50.063Z,32.83
2019-03-30T02:49:19.217Z,31.33
2019-03-30T02:51:48.515Z,31.87
2019-03-30T02:54:17.721Z,30.43
2019-03-30T02:56:47.084Z,30.60
2019-03-30T02:59:16.250Z,32.30
2019-03-30T03:01:45.475Z,36.03
2019-03-30T03:04:14.638Z,34.75
2019-03-30T03:06:46.242Z,32.60
2019-03-30T03:09:16.256Z,31.93
2019-03-30T03:11:45.513Z,30.40
2019-03-30T03:14:16.495Z,30.77
2019-03-30T03:16:45.597Z,33.00
2019-03-30T03:19:14.775Z,32.85
2019-03-30T03:21:44.049Z,31.77
2019-03-30T03:24:13.212Z,31.40
2019-03-30T03:26:43.212Z,31.62
2019-03-30T03:29:12.459Z,31.68
2019-03-30T03:31:41.583Z,29.70
2019-03-30T03:34:10.808Z,35.40
2019-03-30T03:36:40.162Z,33.93
2019-03-30T03:39:09.340Z,31.87
2019-03-30T03:41:39.537Z,30.57
2019-03-30T03:44:09.060Z,29.90
2019-03-30T03:46:38.258Z,32.25
2019-03-30T03:49:07.480Z,33.53
2019-03-30T03:51:36.667Z,30.20
2019-03-30T03:54:05.914Z,33.73
2019-03-30T03:56:35.238Z,31.82
2019-03-30T03:59:06.004Z,33.83
2019-03-30T04:01:35.558Z,34.10
2019-03-30T04:04:05.885Z,30.60
2019-03-30T04:06:36.535Z,28.35
2019-03-30T04:09:06.902Z,32.35
2019-03-30T04:11:37.932Z,32.70
2019-03-30T04:14:08.761Z,31.40
2019-03-30T04:16:38.279Z,32.05
2019-03-30T04:19:07.499Z,30.48
2019-03-30T04:21:44.256Z,31.70
2019-03-30T04:24:07.608Z,28.70
2019-03-30T04:26:37.155Z,27.65
2019-03-30T04:29:06.295Z,28.80
2019-03-30T04:31:35.513Z,28.67
2019-03-30T04:34:04.691Z,27.90
2019-03-30T04:36:33.914Z,25.72
2019-03-30T04:39:03.119Z,26.82
2019-03-30T04:41:32.401Z,32.43
2019-03-30T04:44:01.734Z,27.30
2019-03-30T04:46:30.870Z,27.50
2019-03-30T04:49:00.147Z,27.45
2019-03-30T04:51:29.279Z,26.45
2019-03-30T04:53:58.549Z,26.30
2019-03-30T04:56:28.675Z,27.00
2019-03-30T04:58:58.658Z,26.07
2019-03-30T05:01:28.866Z,29.52
2019-03-30T05:03:59.465Z,27.93
2019-03-30T05:06:30.555Z,25.80
2019-03-30T05:09:00.709Z,27.73
2019-03-30T05:11:30.964Z,28.03
2019-03-30T05:14:01.249Z,28.95
2019-03-30T05:16:31.371Z,25.45
2019-03-30T05:19:01.477Z,26.48
2019-03-30T05:21:31.864Z,27.93
2019-03-30T05:24:01.996Z,27.93
2019-03-30T05:26:32.116Z,26.17
2019-03-30T05:29:02.178Z,29.55
2019-03-30T05:31:32.182Z,30.12
2019-03-30T05:34:02.178Z,26.42
2019-03-30T05:36:32.377Z,26.35
2019-03-30T05:39:01.622Z,24.92
2019-03-30T05:41:31.626Z,27.13
2019-03-30T05:44:01.756Z,28.47
2019-03-30T05:46:31.988Z,27.98
2019-03-30T05:49:02.044Z,26.45
2019-03-30T05:51:32.070Z,26.25
2019-03-30T05:54:02.266Z,25.62
2019-03-30T05:56:32.567Z,26.95
2019-03-30T05:59:02.724Z,24.87
2019-03-30T06:01:32.916Z,25.10
2019-03-30T06:04:03.065Z,25.97
2019-03-30T06:06:33.759Z,27.13
2019-03-30T06:09:05.505Z,26.05
2019-03-30T06:11:35.656Z,23.90
2019-03-30T06:14:05.959Z,21.70
2019-03-30T06:16:36.104Z,22.98
2019-03-30T06:19:06.175Z,24.87
2019-03-30T06:21:36.174Z,23.35
2019-03-30T06:24:06.117Z,23.95
2019-03-30T06:26:36.253Z,21.27
2019-03-30T06:29:06.384Z,24.02
2019-03-30T06:31:37.507Z,22.80
2019-03-30T06:34:07.615Z,21.83
2019-03-30T06:36:37.846Z,21.77
2019-03-30T06:39:08.129Z,21.95
2019-03-30T06:41:38.197Z,23.12
2019-03-30T06:44:08.245Z,22.07
2019-03-30T06:46:39.613Z,21.07
2019-03-30T06:49:10.576Z,24.35
2019-03-30T06:51:40.733Z,21.80
2019-03-30T06:54:10.956Z,25.02
2019-03-30T06:56:41.180Z,21.48
2019-03-30T06:59:11.307Z,22.32
2019-03-30T07:01:40.804Z,22.07
2019-03-30T07:04:11.356Z,19.95
2019-03-30T07:06:42.034Z,24.07
2019-03-30T07:09:11.344Z,21.75
2019-03-30T07:11:42.595Z,20.33
2019-03-30T07:14:11.765Z,20.62
2019-03-30T07:16:43.322Z,22.62
2019-03-30T07:19:12.811Z,18.63
2019-03-30T07:21:42.835Z,21.90
2019-03-30T07:24:12.830Z,21.75
2019-03-30T07:26:42.476Z,20.10
2019-03-30T07:29:12.845Z,20.00
2019-03-30T07:31:43.045Z,18.55
2019-03-30T07:34:13.200Z,20.02
2019-03-30T07:36:43.365Z,19.12
2019-03-30T07:39:13.334Z,18.95
2019-03-30T07:41:43.347Z,19.57
2019-03-30T07:44:13.497Z,20.08
2019-03-30T07:46:43.532Z,21.83
2019-03-30T07:49:12.695Z,18.50
2019-03-30T07:51:42.715Z,19.07
2019-03-30T07:54:12.930Z,19.35
2019-03-30T07:56:45.601Z,20.45
2019-03-30T07:59:15.836Z,19.37
2019-03-30T08:01:45.163Z,17.05
2019-03-30T08:04:15.490Z,21.20
2019-03-30T08:06:45.823Z,20.70
2019-03-30T08:09:15.995Z,21.40
2019-03-30T08:11:46.068Z,20.72
2019-03-30T08:14:15.233Z,18.48
2019-03-30T08:16:45.263Z,18.82
2019-03-30T08:19:15.306Z,21.77
2019-03-30T08:21:45.400Z,19.30
2019-03-30T08:24:15.642Z,18.40
2019-03-30T08:26:44.822Z,18.27
2019-03-30T08:29:14.884Z,21.48
2019-03-30T08:31:45.078Z,20.70
2019-03-30T08:34:14.242Z,21.13
2019-03-30T08:36:43.434Z,22.20
2019-03-30T08:39:12.591Z,21.95
2019-03-30T08:41:42.819Z,20.05
2019-03-30T08:44:12.872Z,22.10
2019-03-30T08:46:42.272Z,24.67
2019-03-30T08:49:11.551Z,28.73
2019-03-30T08:51:41.765Z,27.42
2019-03-30T08:54:11.121Z,24.57
2019-03-30T08:56:40.294Z,31.07
2019-03-30T08:59:10.439Z,34.85
2019-03-30T09:01:39.624Z,29.30
2019-03-30T09:04:08.862Z,26.12
2019-03-30T09:06:38.048Z,26.80
2019-03-30T09:09:07.494Z,32.53
2019-03-30T09:11:36.671Z,32.57
2019-03-30T09:14:05.828Z,26.60
2019-03-30T09:16:34.995Z,26.65
2019-03-30T09:19:04.150Z,31.00
2019-03-30T09:21:33.281Z,30.12
2019-03-30T09:24:09.707Z,29.15
2019-03-30T09:26:33.484Z,30.00
2019-03-30T09:29:02.644Z,33.18
2019-03-30T09:31:32.143Z,27.07
2019-03-30T09:34:01.352Z,23.87
2019-03-30T09:36:30.648Z,22.70
2019-03-30T09:38:59.808Z,26.55
2019-03-30T09:41:28.967Z,27.20
2019-03-30T09:43:59.064Z,32.48
2019-03-30T09:46:28.209Z,27.45
2019-03-30T09:48:57.537Z,26.80
2019-03-30T09:51:26.689Z,32.05
2019-03-30T09:53:55.843Z,25.92
2019-03-30T09:56:25.045Z,27.20
2019-03-30T09:58:54.371Z,29.80
2019-03-30T10:01:23.868Z,27.85
2019-03-30T10:03:53.061Z,30.50
2019-03-30T10:06:33.490Z,29.92
2019-03-30T10:08:53.020Z,35.63
2019-03-30T10:11:22.253Z,36.60
2019-03-30T10:13:51.468Z,34.58
2019-03-30T10:16:20.651Z,35.05
2019-03-30T10:18:49.908Z,33.80
2019-03-30T10:21:19.228Z,36.48
2019-03-30T10:23:49.591Z,31.82
2019-03-30T10:26:18.875Z,33.10
2019-03-30T10:28:49.158Z,35.60
2019-03-30T10:31:19.471Z,33.98
2019-03-30T10:33:48.707Z,38.00
2019-03-30T10:36:18.730Z,33.73
2019-03-30T10:38:47.916Z,29.60
2019-03-30T10:41:17.936Z,29.42
2019-03-30T10:43:48.079Z,26.93
2019-03-30T10:46:18.207Z,30.77
2019-03-30T10:48:49.336Z,27.07
2019-03-30T10:51:18.550Z,23.80
2019-03-30T10:53:47.744Z,23.05
2019-03-30T10:56:17.867Z,28.02
2019-03-30T10:58:48.371Z,29.50
2019-03-30T11:01:17.569Z,24.05
2019-03-30T11:03:46.883Z,27.30
2019-03-30T11:06:16.047Z,30.65
2019-03-30T11:08:45.366Z,28.12
2019-03-30T11:11:15.447Z,36.07
2019-03-30T11:13:45.568Z,26.90
2019-03-30T11:16:15.696Z,28.38
2019-03-30T11:18:45.740Z,26.25
2019-03-30T11:21:15.840Z,24.87
2019-03-30T11:23:45.878Z,23.47
2019-03-30T11:26:16.073Z,21.27
2019-03-30T11:28:46.185Z,24.85
2019-03-30T11:31:15.368Z,20.77
2019-03-30T11:33:44.566Z,19.50
2019-03-30T11:36:14.683Z,23.85
2019-03-30T11:38:44.970Z,19.00
2019-03-30T11:41:14.155Z,20.48
2019-03-30T11:43:44.215Z,22.62
2019-03-30T11:46:14.248Z,23.18
2019-03-30T11:48:44.344Z,20.92
2019-03-30T11:51:14.540Z,22.07
2019-03-30T11:53:43.768Z,23.70
2019-03-30T11:56:13.760Z,21.97
2019-03-30T11:58:43.939Z,20.08
2019-03-30T12:01:14.096Z,21.75
2019-03-30T12:03:44.089Z,22.62
2019-03-30T12:06:14.186Z,21.33
2019-03-30T12:08:43.345Z,27.37
2019-03-30T12:11:13.463Z,29.60
2019-03-30T12:13:43.501Z,21.10
2019-03-30T12:16:13.565Z,21.80
2019-03-30T12:18:43.970Z,22.05
2019-03-30T12:21:13.996Z,20.68
2019-03-30T12:23:44.256Z,19.25
2019-03-30T12:26:14.382Z,20.60
2019-03-30T12:28:44.692Z,23.73
2019-03-30T12:31:14.844Z,21.52
2019-03-30T12:33:44.034Z,20.95
2019-03-30T12:36:14.214Z,20.97
2019-03-30T12:38:44.357Z,19.70
2019-03-30T12:41:14.470Z,18.95
2019-03-30T12:43:44.807Z,20.37
2019-03-30T12:46:14.862Z,20.27
2019-03-30T12:48:45.221Z,17.77
2019-03-30T12:51:15.342Z,18.92
2019-03-30T12:53:50.389Z,19.97
2019-03-30T12:56:16.368Z,19.67
2019-03-30T12:58:46.467Z,40.80
2019-03-30T13:01:16.745Z,21.73
2019-03-30T13:03:46.788Z,19.00
2019-03-30T13:06:16.867Z,20.30
2019-03-30T13:08:46.980Z,23.67
2019-03-30T13:11:17.021Z,19.12
2019-03-30T13:13:47.239Z,20.57
2019-03-30T13:16:17.391Z,19.30
2019-03-30T13:18:47.703Z,21.68
2019-03-30T13:21:17.883Z,19.70
2019-03-30T13:23:48.068Z,19.92
2019-03-30T13:26:18.353Z,24.27
2019-03-30T13:28:48.390Z,20.50
2019-03-30T13:31:18.615Z,20.05
2019-03-30T13:33:48.692Z,19.92
2019-03-30T13:36:18.357Z,21.35
2019-03-30T13:38:48.403Z,20.95
2019-03-30T13:41:18.557Z,19.37
2019-03-30T13:43:48.646Z,19.87
2019-03-30T13:46:19.044Z,24.30
2019-03-30T13:48:49.094Z,22.00
2019-03-30T13:51:18.399Z,22.30
2019-03-30T13:53:48.592Z,22.58
2019-03-30T13:56:18.756Z,21.57
2019-03-30T13:58:48.898Z,24.45
2019-03-30T14:01:19.184Z,26.33
2019-03-30T14:03:49.284Z,23.30
2019-03-30T14:06:19.471Z,25.15
2019-03-30T14:08:49.768Z,24.75
2019-03-30T14:11:19.973Z,24.27
2019-03-30T14:13:50.117Z,23.80
2019-03-30T14:16:20.382Z,25.62
2019-03-30T14:18:50.557Z,22.05
2019-03-30T14:21:20.879Z,22.98
2019-03-30T14:23:51.345Z,22.77
2019-03-30T14:26:31.390Z,26.75
2019-03-30T14:28:51.970Z,24.23
2019-03-30T14:31:21.282Z,24.70
2019-03-30T14:33:51.525Z,25.03
2019-03-30T14:36:21.637Z,24.93
2019-03-30T14:38:52.051Z,24.30
2019-03-30T14:41:21.260Z,26.97
2019-03-30T14:43:51.286Z,26.00
2019-03-30T14:46:21.465Z,29.10
2019-03-30T14:48:50.718Z,25.57
2019-03-30T14:51:21.176Z,28.87
2019-03-30T14:53:51.397Z,23.62
2019-03-30T14:56:20.588Z,27.52
2019-03-30T14:58:49.788Z,24.67
2019-03-30T15:01:19.941Z,27.87
2019-03-30T15:03:50.079Z,31.17
2019-03-30T15:06:20.210Z,27.83
2019-03-30T15:08:49.485Z,29.03
2019-03-30T15:11:18.813Z,31.10
2019-03-30T15:13:48.025Z,29.90
2019-03-30T15:16:17.371Z,33.58
2019-03-30T15:18:46.554Z,26.42
2019-03-30T15:21:15.754Z,24.55
2019-03-30T15:23:46.153Z,25.45
2019-03-30T15:26:16.329Z,26.10
2019-03-30T15:28:45.559Z,27.42
2019-03-30T15:31:14.762Z,26.45
2019-03-30T15:33:43.960Z,28.35
2019-03-30T15:36:13.107Z,28.00
2019-03-30T15:38:43.277Z,26.93
2019-03-30T15:41:13.323Z,25.60
2019-03-30T15:43:43.390Z,25.90
2019-03-30T15:46:14.461Z,25.05
2019-03-30T15:48:44.763Z,24.75
2019-03-30T15:51:13.936Z,28.00
2019-03-30T15:53:44.370Z,25.12
2019-03-30T15:56:14.533Z,29.92
2019-03-30T15:58:44.628Z,27.07
2019-03-30T16:01:14.942Z,30.82
2019-03-30T16:03:44.936Z,30.80
2019-03-30T16:06:14.709Z,35.75
2019-03-30T16:08:44.848Z,37.20
2019-03-30T16:11:15.148Z,36.20
2019-03-30T16:13:44.628Z,35.08
2019-03-30T16:16:14.628Z,38.73
2019-03-30T16:18:44.656Z,38.37
2019-03-30T16:21:14.681Z,37.63
2019-03-30T16:23:44.962Z,40.03
2019-03-30T16:26:15.269Z,40.30
2019-03-30T16:28:45.282Z,40.63
2019-03-30T16:31:15.485Z,40.92
2019-03-30T16:33:46.987Z,41.50
2019-03-30T16:36:17.697Z,119.13
2019-03-30T16:38:47.944Z,46.90
2019-03-30T16:41:17.958Z,50.52
2019-03-30T16:43:48.132Z,49.18
2019-03-30T16:46:18.318Z,47.55
2019-03-30T16:48:48.517Z,49.10
2019-03-30T16:51:18.728Z,50.60
2019-03-30T16:53:48.898Z,45.15
2019-03-30T16:56:19.008Z,47.95
2019-03-30T16:58:49.149Z,47.93
2019-03-30T17:01:19.328Z,45.52
2019-03-30T17:03:50.146Z,47.48
2019-03-30T17:06:20.286Z,70.32
2019-03-30T17:08:50.308Z,50.00
2019-03-30T17:11:21.011Z,47.13
2019-03-30T17:13:51.058Z,47.73
2019-03-30T17:16:21.458Z,47.83
2019-03-30T17:18:51.685Z,47.80
2019-03-30T17:21:21.888Z,48.48
2019-03-30T17:23:52.000Z,47.95
2019-03-30T17:26:22.483Z,47.17
2019-03-30T17:28:52.570Z,45.23
2019-03-30T17:31:22.785Z,49.48
2019-03-30T17:33:52.856Z,51.65
2019-03-30T17:36:23.111Z,48.30
2019-03-30T17:38:53.208Z,48.23
2019-03-30T17:41:23.531Z,50.55
2019-03-30T17:43:53.879Z,53.00
2019-03-30T17:46:23.943Z,56.85
2019-03-30T17:48:53.883Z,59.93
2019-03-30T17:51:23.967Z,62.85
2019-03-30T17:53:54.169Z,62.33
2019-03-30T17:56:24.149Z,65.37
2019-03-30T17:58:54.364Z,65.80
2019-03-30T18:01:24.498Z,62.73
2019-03-30T18:03:54.631Z,66.70
2019-03-30T18:06:24.781Z,67.75
2019-03-30T18:08:54.946Z,60.05
2019-03-30T18:11:25.061Z,62.57
2019-03-30T18:13:55.197Z,61.60
2019-03-30T18:16:25.477Z,60.75
2019-03-30T18:18:55.944Z,64.62
2019-03-30T18:21:25.993Z,59.60
2019-03-30T18:23:56.113Z,59.80
2019-03-30T18:26:26.180Z,64.22
2019-03-30T18:28:56.363Z,71.80
2019-03-30T18:31:26.689Z,68.83
2019-03-30T18:33:57.079Z,73.30
2019-03-30T18:36:29.036Z,76.22
2019-03-30T18:39:09.505Z,89.05
2019-03-30T18:41:31.923Z,99.45
2019-03-30T18:44:02.544Z,109.97
2019-03-30T18:46:32.681Z,106.70
2019-03-30T18:49:02.775Z,104.40
2019-03-30T18:51:33.414Z,106.63
2019-03-30T18:54:04.062Z,102.12
2019-03-30T18:56:34.407Z,104.67
2019-03-30T18:59:04.667Z,111.55
2019-03-30T19:01:34.769Z,130.18
2019-03-30T19:04:05.152Z,123.58
2019-03-30T19:06:35.241Z,130.85
2019-03-30T19:09:07.646Z,136.22
2019-03-30T19:11:37.698Z,147.28
2019-03-30T19:14:07.792Z,150.47
2019-03-30T19:16:37.868Z,153.00
2019-03-30T19:19:08.050Z,135.65
2019-03-30T19:21:38.140Z,150.20
2019-03-30T19:24:08.386Z,135.32
2019-03-30T19:26:38.599Z,144.57
2019-03-30T19:29:08.844Z,143.33
2019-03-30T19:31:38.988Z,141.07
2019-03-30T19:34:09.171Z,149.80
2019-03-30T19:36:39.318Z,148.30
2019-03-30T19:39:10.626Z,145.17
2019-03-30T19:41:41.503Z,149.50
2019-03-30T19:44:11.622Z,182.17
2019-03-30T19:46:41.706Z,154.80
2019-03-30T19:49:11.766Z,155.93
2019-03-30T19:51:41.893Z,168.97
2019-03-30T19:54:12.014Z,164.50
2019-03-30T19:56:42.087Z,165.70
2019-03-30T19:59:12.204Z,166.45
2019-03-30T20:01:42.282Z,165.20
2019-03-30T20:04:12.512Z,160.67
2019-03-30T20:06:42.936Z,175.97
2019-03-30T20:09:13.087Z,178.60
2019-03-30T20:11:43.184Z,241.07
2019-03-30T20:14:13.382Z,182.85
2019-03-30T20:16:43.573Z,191.88
2019-03-30T20:19:13.743Z,170.38
2019-03-30T20:21:43.956Z,191.95
2019-03-30T20:24:14.108Z,204.80
2019-03-30T20:26:44.371Z,203.35
2019-03-30T20:29:24.739Z,216.02
2019-03-30T20:31:46.246Z,204.97
2019-03-30T20:34:16.373Z,204.18
2019-03-30T20:36:47.071Z,199.85
2019-03-30T20:39:17.206Z,204.50
2019-03-30T20:41:47.379Z,188.07
2019-03-30T20:44:17.615Z,195.53
2019-03-30T20:46:47.776Z,193.62
2019-03-30T20:49:18.052Z,193.82
2019-03-30T20:51:48.174Z,187.85
2019-03-30T20:54:18.304Z,190.15
2019-03-30T20:56:48.394Z,185.28
2019-03-30T20:59:18.418Z,179.00
2019-03-30T21:01:48.397Z,196.90
2019-03-30T21:04:18.503Z,182.68
2019-03-30T21:06:48.694Z,184.37
2019-03-30T21:09:19.017Z,189.62
2019-03-30T21:11:49.159Z,183.60
2019-03-30T21:14:19.309Z,185.45
2019-03-30T21:16:49.400Z,171.02
2019-03-30T21:19:19.443Z,179.97
2019-03-30T21:21:49.551Z,176.42
2019-03-30T21:24:19.569Z,174.77
2019-03-30T21:26:49.619Z,176.65
2019-03-30T21:29:19.656Z,171.60
2019-03-30T21:31:49.835Z,175.80
2019-03-30T21:34:19.989Z,169.95
2019-03-30T21:36:50.090Z,175.25
2019-03-30T21:39:20.245Z,177.05
2019-03-30T21:41:50.627Z,175.12
2019-03-30T21:44:22.257Z,169.82
2019-03-30T21:46:52.562Z,172.23
2019-03-30T21:49:22.734Z,189.72
2019-03-30T21:51:52.952Z,192.60
2019-03-30T21:54:23.181Z,177.73
2019-03-30T21:56:53.347Z,187.72
2019-03-30T21:59:23.558Z,187.68
2019-03-30T22:01:53.767Z,184.83
2019-03-30T22:04:24.005Z,200.62
2019-03-30T22:06:54.287Z,184.30
2019-03-30T22:09:24.340Z,194.60
2019-03-30T22:11:54.418Z,190.68
2019-03-30T22:14:24.549Z,197.57
2019-03-30T22:16:55.042Z,195.55
2019-03-30T22:19:25.063Z,194.30
2019-03-30T22:21:55.259Z,186.35
2019-03-30T22:24:25.475Z,183.10
2019-03-30T22:26:55.672Z,174.10
2019-03-30T22:29:25.785Z,174.60
2019-03-30T22:31:55.960Z,169.77
2019-03-30T22:34:26.019Z,182.35
2019-03-30T22:36:56.028Z,187.65
2019-03-30T22:39:26.205Z,190.25
2019-03-30T22:41:56.287Z,198.57
2019-03-30T22:44:26.300Z,195.95
2019-03-30T22:46:56.588Z,206.07
2019-03-30T22:49:26.754Z,197.53
2019-03-30T22:51:57.078Z,211.40
2019-03-30T22:54:27.279Z,218.87
2019-03-30T22:56:57.444Z,210.17
2019-03-30T22:59:27.830Z,213.12
2019-03-30T23:01:58.061Z,231.47
2019-03-30T23:04:28.190Z,219.10
2019-03-30T23:06:58.862Z,224.77
2019-03-30T23:09:28.915Z,215.62
2019-03-30T23:11:59.220Z,234.67
2019-03-30T23:14:29.442Z,222.63
2019-03-30T23:16:59.562Z,227.70
2019-03-30T23:19:29.676Z,223.47
2019-03-30T23:21:59.856Z,222.35
2019-03-30T23:24:29.818Z,217.53
2019-03-30T23:26:59.887Z,231.40
2019-03-30T23:29:29.890Z,192.60
2019-03-30T23:32:00.256Z,201.97
2019-03-30T23:34:30.292Z,223.30
2019-03-30T23:37:00.468Z,203.83
2019-03-30T23:39:30.649Z,226.90
2019-03-30T23:42:00.945Z,226.12
2019-03-30T23:44:31.029Z,208.13
2019-03-30T23:47:01.403Z,211.57
2019-03-30T23:49:31.397Z,229.32
2019-03-30T23:52:01.379Z,240.95
2019-03-30T23:54:32.029Z,225.55
2019-03-30T23:57:02.805Z,224.58
2019-03-30T23:59:32.830Z,212.40
